sensor_id;sensor_type;location;lat;lon;timestamp;P1;durP1;ratioP1;P2;durP2;ratioP2
6547;SDS011;3307;52.416;16.862;2023-06-19T00:01:08;17.37;;;15.60;;
6547;SDS011;3307;52.416;16.862;2023-06-19T00:03:33;16.40;;;14.60;;
6547;SDS011;3307;52.416;16.862;2023-06-19T00:05:58;17.63;;;14.97;;
6547;SDS011;3307;52.416;16.862;2023-06-19T00:08:24;15.93;;;14.43;;
6547;SDS011;3307;52.416;16.862;2023-06-19T00:10:49;13.63;;;12.33;;
6547;SDS011;3307;52.416;16.862;2023-06-19T00:13:15;16.53;;;14.20;;
6547;SDS011;3307;52.416;16.862;2023-06-19T00:15:40;16.80;;;15.00;;
6547;SDS011;3307;52.416;16.862;2023-06-19T00:18:06;14.87;;;13.37;;
6547;SDS011;3307;52.416;16.862;2023-06-19T00:20:32;16.77;;;14.30;;
6547;SDS011;3307;52.416;16.862;2023-06-19T00:22:57;15.37;;;13.90;;
6547;SDS011;3307;52.416;16.862;2023-06-19T00:25:23;15.83;;;14.13;;
6547;SDS011;3307;52.416;16.862;2023-06-19T00:27:48;15.33;;;13.90;;
6547;SDS011;3307;52.416;16.862;2023-06-19T00:30:14;14.73;;;13.40;;
6547;SDS011;3307;52.416;16.862;2023-06-19T00:32:40;16.15;;;14.55;;
6547;SDS011;3307;52.416;16.862;2023-06-19T00:35:12;15.30;;;13.70;;
6547;SDS011;3307;52.416;16.862;2023-06-19T00:37:39;16.25;;;13.20;;
6547;SDS011;3307;52.416;16.862;2023-06-19T00:40:05;14.70;;;13.47;;
6547;SDS011;3307;52.416;16.862;2023-06-19T00:42:33;14.73;;;13.05;;
6547;SDS011;3307;52.416;16.862;2023-06-19T00:44:58;15.57;;;13.57;;
6547;SDS011;3307;52.416;16.862;2023-06-19T00:47:24;15.80;;;14.30;;
6547;SDS011;3307;52.416;16.862;2023-06-19T00:49:50;15.30;;;13.85;;
6547;SDS011;3307;52.416;16.862;2023-06-19T00:52:16;13.73;;;12.50;;
6547;SDS011;3307;52.416;16.862;2023-06-19T00:54:42;14.85;;;13.52;;
6547;SDS011;3307;52.416;16.862;2023-06-19T00:57:08;14.47;;;12.97;;
6547;SDS011;3307;52.416;16.862;2023-06-19T00:59:33;14.83;;;13.37;;
6547;SDS011;3307;52.416;16.862;2023-06-19T01:01:59;16.20;;;14.70;;
6547;SDS011;3307;52.416;16.862;2023-06-19T01:04:25;14.83;;;13.40;;
6547;SDS011;3307;52.416;16.862;2023-06-19T01:06:54;18.23;;;14.17;;
6547;SDS011;3307;52.416;16.862;2023-06-19T01:09:31;15.88;;;14.30;;
6547;SDS011;3307;52.416;16.862;2023-06-19T01:12:07;15.02;;;13.63;;
6547;SDS011;3307;52.416;16.862;2023-06-19T01:14:39;17.80;;;14.52;;
6547;SDS011;3307;52.416;16.862;2023-06-19T01:17:26;18.35;;;14.10;;
6547;SDS011;3307;52.416;16.862;2023-06-19T01:19:52;16.55;;;14.85;;
6547;SDS011;3307;52.416;16.862;2023-06-19T01:22:23;16.05;;;14.35;;
6547;SDS011;3307;52.416;16.862;2023-06-19T01:24:52;19.65;;;15.00;;
6547;SDS011;3307;52.416;16.862;2023-06-19T01:27:18;16.50;;;14.90;;
6547;SDS011;3307;52.416;16.862;2023-06-19T01:29:43;18.47;;;14.80;;
6547;SDS011;3307;52.416;16.862;2023-06-19T01:32:10;18.00;;;16.00;;
6547;SDS011;3307;52.416;16.862;2023-06-19T01:34:44;17.88;;;15.68;;
6547;SDS011;3307;52.416;16.862;2023-06-19T01:37:11;17.92;;;16.13;;
6547;SDS011;3307;52.416;16.862;2023-06-19T01:39:37;16.97;;;15.27;;
6547;SDS011;3307;52.416;16.862;2023-06-19T01:42:02;15.93;;;14.37;;
6547;SDS011;3307;52.416;16.862;2023-06-19T01:44:29;16.67;;;14.95;;
6547;SDS011;3307;52.416;16.862;2023-06-19T01:46:55;16.17;;;14.57;;
6547;SDS011;3307;52.416;16.862;2023-06-19T01:49:20;16.73;;;15.07;;
6547;SDS011;3307;52.416;16.862;2023-06-19T01:51:45;16.70;;;14.97;;
6547;SDS011;3307;52.416;16.862;2023-06-19T01:54:11;16.63;;;15.00;;
6547;SDS011;3307;52.416;16.862;2023-06-19T01:56:36;16.93;;;15.30;;
6547;SDS011;3307;52.416;16.862;2023-06-19T01:59:02;17.83;;;16.00;;
6547;SDS011;3307;52.416;16.862;2023-06-19T02:01:27;18.40;;;16.70;;
6547;SDS011;3307;52.416;16.862;2023-06-19T02:03:53;18.30;;;16.23;;
6547;SDS011;3307;52.416;16.862;2023-06-19T02:06:18;17.37;;;15.50;;
6547;SDS011;3307;52.416;16.862;2023-06-19T02:08:44;17.20;;;15.40;;
6547;SDS011;3307;52.416;16.862;2023-06-19T02:11:09;17.20;;;15.60;;
6547;SDS011;3307;52.416;16.862;2023-06-19T02:13:35;16.93;;;15.23;;
6547;SDS011;3307;52.416;16.862;2023-06-19T02:16:00;17.47;;;15.87;;
6547;SDS011;3307;52.416;16.862;2023-06-19T02:18:25;16.10;;;14.50;;
6547;SDS011;3307;52.416;16.862;2023-06-19T02:20:51;17.23;;;15.43;;
6547;SDS011;3307;52.416;16.862;2023-06-19T02:23:16;15.80;;;14.33;;
6547;SDS011;3307;52.416;16.862;2023-06-19T02:25:42;17.20;;;14.93;;
6547;SDS011;3307;52.416;16.862;2023-06-19T02:28:07;17.27;;;15.47;;
6547;SDS011;3307;52.416;16.862;2023-06-19T02:30:33;17.33;;;15.40;;
6547;SDS011;3307;52.416;16.862;2023-06-19T02:32:58;22.30;;;15.33;;
6547;SDS011;3307;52.416;16.862;2023-06-19T02:35:23;19.57;;;15.87;;
6547;SDS011;3307;52.416;16.862;2023-06-19T02:37:49;19.10;;;17.10;;
6547;SDS011;3307;52.416;16.862;2023-06-19T02:40:14;17.33;;;15.57;;
6547;SDS011;3307;52.416;16.862;2023-06-19T02:42:40;17.60;;;15.70;;
6547;SDS011;3307;52.416;16.862;2023-06-19T02:45:06;17.73;;;15.90;;
6547;SDS011;3307;52.416;16.862;2023-06-19T02:47:32;17.30;;;15.50;;
6547;SDS011;3307;52.416;16.862;2023-06-19T02:50:01;16.57;;;15.07;;
6547;SDS011;3307;52.416;16.862;2023-06-19T02:52:28;18.52;;;16.73;;
6547;SDS011;3307;52.416;16.862;2023-06-19T02:54:54;17.80;;;15.90;;
6547;SDS011;3307;52.416;16.862;2023-06-19T02:57:19;17.80;;;16.10;;
6547;SDS011;3307;52.416;16.862;2023-06-19T02:59:45;22.70;;;17.47;;
6547;SDS011;3307;52.416;16.862;2023-06-19T03:02:13;18.10;;;16.20;;
6547;SDS011;3307;52.416;16.862;2023-06-19T03:04:39;18.47;;;16.77;;
6547;SDS011;3307;52.416;16.862;2023-06-19T03:07:05;19.35;;;17.35;;
6547;SDS011;3307;52.416;16.862;2023-06-19T03:09:31;18.60;;;16.60;;
6547;SDS011;3307;52.416;16.862;2023-06-19T03:11:56;17.73;;;16.03;;
6547;SDS011;3307;52.416;16.862;2023-06-19T03:14:21;22.97;;;18.53;;
6547;SDS011;3307;52.416;16.862;2023-06-19T03:16:47;19.50;;;17.37;;
6547;SDS011;3307;52.416;16.862;2023-06-19T03:19:13;19.53;;;17.13;;
6547;SDS011;3307;52.416;16.862;2023-06-19T03:21:38;17.53;;;15.83;;
6547;SDS011;3307;52.416;16.862;2023-06-19T03:24:04;17.83;;;16.00;;
6547;SDS011;3307;52.416;16.862;2023-06-19T03:26:29;20.20;;;17.63;;
6547;SDS011;3307;52.416;16.862;2023-06-19T03:28:55;20.20;;;17.90;;
6547;SDS011;3307;52.416;16.862;2023-06-19T03:31:20;19.10;;;17.13;;
6547;SDS011;3307;52.416;16.862;2023-06-19T03:33:45;20.67;;;17.20;;
6547;SDS011;3307;52.416;16.862;2023-06-19T03:36:11;19.43;;;17.43;;
6547;SDS011;3307;52.416;16.862;2023-06-19T03:38:36;21.03;;;18.50;;
6547;SDS011;3307;52.416;16.862;2023-06-19T03:41:02;20.70;;;18.40;;
6547;SDS011;3307;52.416;16.862;2023-06-19T03:43:27;20.43;;;18.40;;
6547;SDS011;3307;52.416;16.862;2023-06-19T03:45:53;20.13;;;17.80;;
6547;SDS011;3307;52.416;16.862;2023-06-19T03:48:18;22.20;;;19.60;;
6547;SDS011;3307;52.416;16.862;2023-06-19T03:50:43;21.67;;;18.50;;
6547;SDS011;3307;52.416;16.862;2023-06-19T03:53:09;21.17;;;18.10;;
6547;SDS011;3307;52.416;16.862;2023-06-19T03:55:34;21.67;;;19.37;;
6547;SDS011;3307;52.416;16.862;2023-06-19T03:58:00;21.97;;;19.37;;
6547;SDS011;3307;52.416;16.862;2023-06-19T04:00:25;20.83;;;18.73;;
6547;SDS011;3307;52.416;16.862;2023-06-19T04:02:51;23.83;;;20.83;;
6547;SDS011;3307;52.416;16.862;2023-06-19T04:05:16;24.07;;;20.50;;
6547;SDS011;3307;52.416;16.862;2023-06-19T04:07:41;29.07;;;23.80;;
6547;SDS011;3307;52.416;16.862;2023-06-19T04:10:07;26.83;;;23.33;;
6547;SDS011;3307;52.416;16.862;2023-06-19T04:12:33;26.63;;;22.00;;
6547;SDS011;3307;52.416;16.862;2023-06-19T04:14:58;27.67;;;24.80;;
6547;SDS011;3307;52.416;16.862;2023-06-19T04:17:24;28.43;;;23.90;;
6547;SDS011;3307;52.416;16.862;2023-06-19T04:19:49;25.03;;;21.93;;
6547;SDS011;3307;52.416;16.862;2023-06-19T04:22:14;26.83;;;23.83;;
6547;SDS011;3307;52.416;16.862;2023-06-19T04:24:40;28.50;;;24.03;;
6547;SDS011;3307;52.416;16.862;2023-06-19T04:27:05;26.00;;;23.40;;
6547;SDS011;3307;52.416;16.862;2023-06-19T04:29:33;28.88;;;22.92;;
6547;SDS011;3307;52.416;16.862;2023-06-19T04:31:58;26.90;;;22.63;;
6547;SDS011;3307;52.416;16.862;2023-06-19T04:34:24;34.43;;;24.40;;
6547;SDS011;3307;52.416;16.862;2023-06-19T04:36:50;26.87;;;23.53;;
6547;SDS011;3307;52.416;16.862;2023-06-19T04:39:16;25.53;;;21.57;;
6547;SDS011;3307;52.416;16.862;2023-06-19T04:41:44;23.53;;;21.13;;
6547;SDS011;3307;52.416;16.862;2023-06-19T04:44:10;24.33;;;21.70;;
6547;SDS011;3307;52.416;16.862;2023-06-19T04:46:38;24.52;;;21.20;;
6547;SDS011;3307;52.416;16.862;2023-06-19T04:49:05;24.45;;;21.85;;
6547;SDS011;3307;52.416;16.862;2023-06-19T04:51:31;26.90;;;21.50;;
6547;SDS011;3307;52.416;16.862;2023-06-19T04:54:00;24.23;;;21.73;;
6547;SDS011;3307;52.416;16.862;2023-06-19T04:56:25;26.07;;;21.67;;
6547;SDS011;3307;52.416;16.862;2023-06-19T04:58:51;23.57;;;21.07;;
6547;SDS011;3307;52.416;16.862;2023-06-19T05:01:16;23.73;;;21.00;;
6547;SDS011;3307;52.416;16.862;2023-06-19T05:03:43;22.27;;;19.90;;
6547;SDS011;3307;52.416;16.862;2023-06-19T05:06:11;23.33;;;20.90;;
6547;SDS011;3307;52.416;16.862;2023-06-19T05:08:36;22.73;;;20.27;;
6547;SDS011;3307;52.416;16.862;2023-06-19T05:11:02;26.83;;;21.00;;
6547;SDS011;3307;52.416;16.862;2023-06-19T05:13:27;23.10;;;20.23;;
6547;SDS011;3307;52.416;16.862;2023-06-19T05:15:52;26.30;;;20.80;;
6547;SDS011;3307;52.416;16.862;2023-06-19T05:18:18;22.63;;;20.13;;
6547;SDS011;3307;52.416;16.862;2023-06-19T05:20:44;22.23;;;19.67;;
6547;SDS011;3307;52.416;16.862;2023-06-19T05:23:09;21.17;;;18.90;;
6547;SDS011;3307;52.416;16.862;2023-06-19T05:25:35;21.37;;;19.10;;
6547;SDS011;3307;52.416;16.862;2023-06-19T05:28:01;24.20;;;18.80;;
6547;SDS011;3307;52.416;16.862;2023-06-19T05:30:26;19.93;;;17.90;;
6547;SDS011;3307;52.416;16.862;2023-06-19T05:32:52;19.43;;;17.30;;
6547;SDS011;3307;52.416;16.862;2023-06-19T05:35:17;18.60;;;15.70;;
6547;SDS011;3307;52.416;16.862;2023-06-19T05:37:43;19.27;;;17.10;;
6547;SDS011;3307;52.416;16.862;2023-06-19T05:40:09;18.23;;;16.33;;
6547;SDS011;3307;52.416;16.862;2023-06-19T05:42:35;19.20;;;17.20;;
6547;SDS011;3307;52.416;16.862;2023-06-19T05:45:00;20.20;;;18.07;;
6547;SDS011;3307;52.416;16.862;2023-06-19T05:47:28;19.27;;;17.23;;
6547;SDS011;3307;52.416;16.862;2023-06-19T05:49:54;19.93;;;17.77;;
6547;SDS011;3307;52.416;16.862;2023-06-19T05:52:19;19.63;;;17.43;;
6547;SDS011;3307;52.416;16.862;2023-06-19T05:54:46;22.57;;;18.07;;
6547;SDS011;3307;52.416;16.862;2023-06-19T05:57:11;19.73;;;16.50;;
6547;SDS011;3307;52.416;16.862;2023-06-19T05:59:37;17.20;;;15.40;;
6547;SDS011;3307;52.416;16.862;2023-06-19T06:02:02;15.53;;;13.93;;
6547;SDS011;3307;52.416;16.862;2023-06-19T06:04:28;15.23;;;13.90;;
6547;SDS011;3307;52.416;16.862;2023-06-19T06:06:55;16.60;;;14.90;;
6547;SDS011;3307;52.416;16.862;2023-06-19T06:09:21;16.73;;;15.13;;
6547;SDS011;3307;52.416;16.862;2023-06-19T06:11:46;16.57;;;14.87;;
6547;SDS011;3307;52.416;16.862;2023-06-19T06:14:12;19.73;;;17.60;;
6547;SDS011;3307;52.416;16.862;2023-06-19T06:16:37;17.80;;;16.10;;
6547;SDS011;3307;52.416;16.862;2023-06-19T06:19:03;17.37;;;13.57;;
6547;SDS011;3307;52.416;16.862;2023-06-19T06:21:28;15.53;;;14.03;;
6547;SDS011;3307;52.416;16.862;2023-06-19T06:23:53;14.00;;;12.27;;
6547;SDS011;3307;52.416;16.862;2023-06-19T06:26:19;13.53;;;11.80;;
6547;SDS011;3307;52.416;16.862;2023-06-19T06:28:45;11.90;;;10.87;;
6547;SDS011;3307;52.416;16.862;2023-06-19T06:31:10;13.30;;;12.07;;
6547;SDS011;3307;52.416;16.862;2023-06-19T06:33:36;18.20;;;13.17;;
6547;SDS011;3307;52.416;16.862;2023-06-19T06:36:01;13.00;;;11.67;;
6547;SDS011;3307;52.416;16.862;2023-06-19T06:38:27;12.97;;;11.50;;
6547;SDS011;3307;52.416;16.862;2023-06-19T06:40:52;12.23;;;11.03;;
6547;SDS011;3307;52.416;16.862;2023-06-19T06:43:18;11.20;;;9.63;;
6547;SDS011;3307;52.416;16.862;2023-06-19T06:45:43;12.33;;;11.03;;
6547;SDS011;3307;52.416;16.862;2023-06-19T06:48:09;11.47;;;10.37;;
6547;SDS011;3307;52.416;16.862;2023-06-19T06:50:34;12.57;;;11.37;;
6547;SDS011;3307;52.416;16.862;2023-06-19T06:53:00;10.97;;;9.87;;
6547;SDS011;3307;52.416;16.862;2023-06-19T06:55:25;9.70;;;8.90;;
6547;SDS011;3307;52.416;16.862;2023-06-19T06:57:51;12.03;;;10.60;;
6547;SDS011;3307;52.416;16.862;2023-06-19T07:00:16;12.50;;;11.07;;
6547;SDS011;3307;52.416;16.862;2023-06-19T07:02:43;10.10;;;9.20;;
6547;SDS011;3307;52.416;16.862;2023-06-19T07:05:09;9.57;;;8.73;;
6547;SDS011;3307;52.416;16.862;2023-06-19T07:07:35;9.30;;;8.43;;
6547;SDS011;3307;52.416;16.862;2023-06-19T07:10:01;7.40;;;6.30;;
6547;SDS011;3307;52.416;16.862;2023-06-19T07:12:26;7.23;;;6.53;;
6547;SDS011;3307;52.416;16.862;2023-06-19T07:14:55;7.27;;;6.57;;
6547;SDS011;3307;52.416;16.862;2023-06-19T07:17:20;8.70;;;6.97;;
6547;SDS011;3307;52.416;16.862;2023-06-19T07:19:46;9.43;;;8.17;;
6547;SDS011;3307;52.416;16.862;2023-06-19T07:22:11;14.53;;;8.23;;
6547;SDS011;3307;52.416;16.862;2023-06-19T07:24:37;6.07;;;5.57;;
6547;SDS011;3307;52.416;16.862;2023-06-19T07:27:02;7.37;;;6.23;;
6547;SDS011;3307;52.416;16.862;2023-06-19T07:29:29;7.30;;;6.60;;
6547;SDS011;3307;52.416;16.862;2023-06-19T07:31:54;9.70;;;6.17;;
6547;SDS011;3307;52.416;16.862;2023-06-19T07:34:20;9.87;;;6.30;;
6547;SDS011;3307;52.416;16.862;2023-06-19T07:36:46;6.87;;;6.20;;
6547;SDS011;3307;52.416;16.862;2023-06-19T07:39:11;6.70;;;6.10;;
6547;SDS011;3307;52.416;16.862;2023-06-19T07:41:37;7.40;;;6.70;;
6547;SDS011;3307;52.416;16.862;2023-06-19T07:44:05;7.10;;;6.40;;
6547;SDS011;3307;52.416;16.862;2023-06-19T07:46:30;6.37;;;5.77;;
6547;SDS011;3307;52.416;16.862;2023-06-19T07:48:55;6.83;;;6.23;;
6547;SDS011;3307;52.416;16.862;2023-06-19T07:51:21;6.93;;;6.33;;
6547;SDS011;3307;52.416;16.862;2023-06-19T07:53:46;7.67;;;6.20;;
6547;SDS011;3307;52.416;16.862;2023-06-19T07:56:12;6.63;;;6.00;;
6547;SDS011;3307;52.416;16.862;2023-06-19T07:58:37;5.53;;;5.03;;
6547;SDS011;3307;52.416;16.862;2023-06-19T08:01:02;6.90;;;6.20;;
6547;SDS011;3307;52.416;16.862;2023-06-19T08:03:28;7.13;;;6.50;;
6547;SDS011;3307;52.416;16.862;2023-06-19T08:05:53;8.10;;;6.77;;
6547;SDS011;3307;52.416;16.862;2023-06-19T08:08:19;6.83;;;6.10;;
6547;SDS011;3307;52.416;16.862;2023-06-19T08:10:44;7.13;;;6.30;;
6547;SDS011;3307;52.416;16.862;2023-06-19T08:13:09;7.20;;;6.53;;
6547;SDS011;3307;52.416;16.862;2023-06-19T08:15:36;6.53;;;5.83;;
6547;SDS011;3307;52.416;16.862;2023-06-19T08:18:02;11.80;;;7.03;;
6547;SDS011;3307;52.416;16.862;2023-06-19T08:20:27;7.90;;;6.90;;
6547;SDS011;3307;52.416;16.862;2023-06-19T08:22:53;6.77;;;6.13;;
6547;SDS011;3307;52.416;16.862;2023-06-19T08:25:18;8.10;;;7.33;;
6547;SDS011;3307;52.416;16.862;2023-06-19T08:27:44;9.10;;;6.47;;
6547;SDS011;3307;52.416;16.862;2023-06-19T08:30:12;8.37;;;6.50;;
6547;SDS011;3307;52.416;16.862;2023-06-19T08:32:38;7.60;;;7.00;;
6547;SDS011;3307;52.416;16.862;2023-06-19T08:35:03;7.30;;;6.60;;
6547;SDS011;3307;52.416;16.862;2023-06-19T08:37:29;7.17;;;6.40;;
6547;SDS011;3307;52.416;16.862;2023-06-19T08:39:54;9.03;;;6.70;;
6547;SDS011;3307;52.416;16.862;2023-06-19T08:42:21;23.20;;;20.90;;
6547;SDS011;3307;52.416;16.862;2023-06-19T08:44:47;8.53;;;7.73;;
6547;SDS011;3307;52.416;16.862;2023-06-19T08:47:13;12.73;;;7.80;;
6547;SDS011;3307;52.416;16.862;2023-06-19T08:49:39;8.33;;;7.53;;
6547;SDS011;3307;52.416;16.862;2023-06-19T08:52:04;7.47;;;6.77;;
6547;SDS011;3307;52.416;16.862;2023-06-19T08:54:31;7.80;;;7.10;;
6547;SDS011;3307;52.416;16.862;2023-06-19T08:56:59;8.67;;;7.97;;
6547;SDS011;3307;52.416;16.862;2023-06-19T08:59:25;8.40;;;7.60;;
6547;SDS011;3307;52.416;16.862;2023-06-19T09:01:53;7.10;;;6.50;;
6547;SDS011;3307;52.416;16.862;2023-06-19T09:04:20;8.00;;;7.20;;
6547;SDS011;3307;52.416;16.862;2023-06-19T09:06:51;7.10;;;6.50;;
6547;SDS011;3307;52.416;16.862;2023-06-19T09:09:19;8.20;;;7.40;;
6547;SDS011;3307;52.416;16.862;2023-06-19T09:14:34;9.23;;;8.43;;
6547;SDS011;3307;52.416;16.862;2023-06-19T09:17:02;8.07;;;7.37;;
6547;SDS011;3307;52.416;16.862;2023-06-19T09:19:28;8.23;;;7.43;;
6547;SDS011;3307;52.416;16.862;2023-06-19T09:21:58;18.10;;;14.57;;
6547;SDS011;3307;52.416;16.862;2023-06-19T09:24:24;7.87;;;7.13;;
6547;SDS011;3307;52.416;16.862;2023-06-19T09:27:07;7.33;;;6.33;;
6547;SDS011;3307;52.416;16.862;2023-06-19T09:29:39;6.90;;;6.23;;
6547;SDS011;3307;52.416;16.862;2023-06-19T09:34:49;7.47;;;6.13;;
6547;SDS011;3307;52.416;16.862;2023-06-19T09:37:17;7.27;;;6.63;;
6547;SDS011;3307;52.416;16.862;2023-06-19T09:39:59;7.33;;;6.73;;
6547;SDS011;3307;52.416;16.862;2023-06-19T09:42:27;8.03;;;7.23;;
6547;SDS011;3307;52.416;16.862;2023-06-19T09:44:58;8.20;;;7.27;;
6547;SDS011;3307;52.416;16.862;2023-06-19T09:47:28;10.00;;;6.97;;
6547;SDS011;3307;52.416;16.862;2023-06-19T09:49:55;8.30;;;7.60;;
6547;SDS011;3307;52.416;16.862;2023-06-19T09:52:21;9.13;;;6.93;;
6547;SDS011;3307;52.416;16.862;2023-06-19T09:54:51;8.80;;;8.10;;
6547;SDS011;3307;52.416;16.862;2023-06-19T09:57:18;9.10;;;7.57;;
6547;SDS011;3307;52.416;16.862;2023-06-19T09:59:45;7.70;;;7.00;;
6547;SDS011;3307;52.416;16.862;2023-06-19T10:02:12;8.00;;;7.30;;
6547;SDS011;3307;52.416;16.862;2023-06-19T10:04:45;8.50;;;7.80;;
6547;SDS011;3307;52.416;16.862;2023-06-19T10:07:18;7.70;;;7.00;;
6547;SDS011;3307;52.416;16.862;2023-06-19T10:10:00;9.60;;;7.30;;
6547;SDS011;3307;52.416;16.862;2023-06-19T10:12:33;15.30;;;7.80;;
6547;SDS011;3307;52.416;16.862;2023-06-19T10:15:19;13.30;;;10.23;;
6547;SDS011;3307;52.416;16.862;2023-06-19T10:18:01;8.57;;;7.50;;
6547;SDS011;3307;52.416;16.862;2023-06-19T10:20:37;8.10;;;7.30;;
6547;SDS011;3307;52.416;16.862;2023-06-19T10:23:15;7.60;;;6.87;;
6547;SDS011;3307;52.416;16.862;2023-06-19T10:25:46;8.10;;;7.40;;
6547;SDS011;3307;52.416;16.862;2023-06-19T10:28:29;7.27;;;6.57;;
6547;SDS011;3307;52.416;16.862;2023-06-19T10:31:05;7.83;;;7.13;;
6547;SDS011;3307;52.416;16.862;2023-06-19T10:33:32;7.70;;;6.70;;
6547;SDS011;3307;52.416;16.862;2023-06-19T10:36:12;8.73;;;7.40;;
6547;SDS011;3307;52.416;16.862;2023-06-19T10:38:40;8.10;;;7.40;;
6547;SDS011;3307;52.416;16.862;2023-06-19T10:41:14;8.33;;;6.40;;
6547;SDS011;3307;52.416;16.862;2023-06-19T10:43:40;7.27;;;6.67;;
6547;SDS011;3307;52.416;16.862;2023-06-19T10:46:05;7.47;;;6.80;;
6547;SDS011;3307;52.416;16.862;2023-06-19T10:48:30;7.30;;;6.67;;
6547;SDS011;3307;52.416;16.862;2023-06-19T10:50:56;8.20;;;5.93;;
6547;SDS011;3307;52.416;16.862;2023-06-19T10:53:30;6.80;;;6.20;;
6547;SDS011;3307;52.416;16.862;2023-06-19T10:56:00;7.20;;;6.57;;
6547;SDS011;3307;52.416;16.862;2023-06-19T10:58:27;7.10;;;6.40;;
6547;SDS011;3307;52.416;16.862;2023-06-19T11:00:53;8.03;;;7.23;;
6547;SDS011;3307;52.416;16.862;2023-06-19T11:03:19;7.23;;;6.63;;
6547;SDS011;3307;52.416;16.862;2023-06-19T11:05:46;7.27;;;6.67;;
6547;SDS011;3307;52.416;16.862;2023-06-19T11:08:16;6.90;;;6.40;;
6547;SDS011;3307;52.416;16.862;2023-06-19T11:10:43;7.30;;;6.67;;
6547;SDS011;3307;52.416;16.862;2023-06-19T11:13:12;7.60;;;6.90;;
6547;SDS011;3307;52.416;16.862;2023-06-19T11:15:39;7.37;;;6.67;;
6547;SDS011;3307;52.416;16.862;2023-06-19T11:18:04;7.80;;;7.07;;
6547;SDS011;3307;52.416;16.862;2023-06-19T11:20:30;7.47;;;6.80;;
6547;SDS011;3307;52.416;16.862;2023-06-19T11:22:56;6.70;;;6.10;;
6547;SDS011;3307;52.416;16.862;2023-06-19T11:25:23;7.53;;;6.83;;
6547;SDS011;3307;52.416;16.862;2023-06-19T11:27:48;6.40;;;5.90;;
6547;SDS011;3307;52.416;16.862;2023-06-19T11:30:17;12.27;;;7.27;;
6547;SDS011;3307;52.416;16.862;2023-06-19T11:32:45;6.63;;;6.03;;
6547;SDS011;3307;52.416;16.862;2023-06-19T11:35:16;6.30;;;5.80;;
6547;SDS011;3307;52.416;16.862;2023-06-19T11:37:42;7.30;;;6.47;;
6547;SDS011;3307;52.416;16.862;2023-06-19T11:40:08;7.17;;;6.47;;
6547;SDS011;3307;52.416;16.862;2023-06-19T11:42:46;6.23;;;5.70;;
6547;SDS011;3307;52.416;16.862;2023-06-19T11:45:16;6.97;;;5.80;;
6547;SDS011;3307;52.416;16.862;2023-06-19T11:47:43;6.50;;;5.90;;
6547;SDS011;3307;52.416;16.862;2023-06-19T11:50:09;7.80;;;6.17;;
6547;SDS011;3307;52.416;16.862;2023-06-19T11:52:35;8.77;;;6.03;;
6547;SDS011;3307;52.416;16.862;2023-06-19T11:55:00;6.20;;;5.60;;
6547;SDS011;3307;52.416;16.862;2023-06-19T11:57:28;5.83;;;5.30;;
6547;SDS011;3307;52.416;16.862;2023-06-19T11:59:54;6.23;;;5.70;;
6547;SDS011;3307;52.416;16.862;2023-06-19T12:02:20;8.87;;;6.00;;
6547;SDS011;3307;52.416;16.862;2023-06-19T12:04:45;8.60;;;6.00;;
6547;SDS011;3307;52.416;16.862;2023-06-19T12:07:11;6.57;;;5.37;;
6547;SDS011;3307;52.416;16.862;2023-06-19T12:09:36;6.93;;;6.20;;
6547;SDS011;3307;52.416;16.862;2023-06-19T12:12:04;6.20;;;5.70;;
6547;SDS011;3307;52.416;16.862;2023-06-19T12:14:30;6.33;;;5.73;;
6547;SDS011;3307;52.416;16.862;2023-06-19T12:16:55;6.90;;;6.30;;
6547;SDS011;3307;52.416;16.862;2023-06-19T12:19:20;6.67;;;6.13;;
6547;SDS011;3307;52.416;16.862;2023-06-19T12:21:46;7.00;;;6.40;;
6547;SDS011;3307;52.416;16.862;2023-06-19T12:24:11;6.17;;;5.67;;
6547;SDS011;3307;52.416;16.862;2023-06-19T12:26:37;7.07;;;6.37;;
6547;SDS011;3307;52.416;16.862;2023-06-19T12:29:03;6.83;;;6.23;;
6547;SDS011;3307;52.416;16.862;2023-06-19T12:31:29;6.83;;;6.23;;
6547;SDS011;3307;52.416;16.862;2023-06-19T12:33:55;9.00;;;6.80;;
6547;SDS011;3307;52.416;16.862;2023-06-19T12:36:20;7.40;;;6.70;;
6547;SDS011;3307;52.416;16.862;2023-06-19T12:38:46;7.00;;;6.40;;
6547;SDS011;3307;52.416;16.862;2023-06-19T12:41:12;8.33;;;6.87;;
6547;SDS011;3307;52.416;16.862;2023-06-19T12:43:38;8.43;;;7.63;;
6547;SDS011;3307;52.416;16.862;2023-06-19T12:46:03;8.53;;;6.93;;
6547;SDS011;3307;52.416;16.862;2023-06-19T12:48:29;7.03;;;6.40;;
6547;SDS011;3307;52.416;16.862;2023-06-19T12:50:54;6.70;;;6.20;;
6547;SDS011;3307;52.416;16.862;2023-06-19T12:53:20;7.03;;;6.43;;
6547;SDS011;3307;52.416;16.862;2023-06-19T12:55:47;6.60;;;6.10;;
6547;SDS011;3307;52.416;16.862;2023-06-19T12:58:13;11.57;;;6.50;;
6547;SDS011;3307;52.416;16.862;2023-06-19T13:00:38;6.87;;;6.33;;
6547;SDS011;3307;52.416;16.862;2023-06-19T13:03:04;8.53;;;6.47;;
6547;SDS011;3307;52.416;16.862;2023-06-19T13:05:29;8.87;;;7.30;;
6547;SDS011;3307;52.416;16.862;2023-06-19T13:07:54;8.27;;;7.53;;
6547;SDS011;3307;52.416;16.862;2023-06-19T13:10:20;7.93;;;6.70;;
6547;SDS011;3307;52.416;16.862;2023-06-19T13:12:46;7.57;;;6.97;;
6547;SDS011;3307;52.416;16.862;2023-06-19T13:15:11;7.77;;;7.17;;
6547;SDS011;3307;52.416;16.862;2023-06-19T13:17:36;7.10;;;6.40;;
6547;SDS011;3307;52.416;16.862;2023-06-19T13:20:02;7.70;;;7.10;;
6547;SDS011;3307;52.416;16.862;2023-06-19T13:22:29;8.53;;;7.73;;
6547;SDS011;3307;52.416;16.862;2023-06-19T13:24:55;8.40;;;7.70;;
6547;SDS011;3307;52.416;16.862;2023-06-19T13:27:20;7.30;;;6.70;;
6547;SDS011;3307;52.416;16.862;2023-06-19T13:29:46;8.53;;;7.83;;
6547;SDS011;3307;52.416;16.862;2023-06-19T13:32:11;7.80;;;7.20;;
6547;SDS011;3307;52.416;16.862;2023-06-19T13:34:36;7.10;;;6.60;;
6547;SDS011;3307;52.416;16.862;2023-06-19T13:37:02;8.10;;;7.40;;
6547;SDS011;3307;52.416;16.862;2023-06-19T13:39:28;7.83;;;7.13;;
6547;SDS011;3307;52.416;16.862;2023-06-19T13:41:53;23.97;;;13.03;;
6547;SDS011;3307;52.416;16.862;2023-06-19T13:44:19;9.30;;;8.13;;
6547;SDS011;3307;52.416;16.862;2023-06-19T13:46:44;10.60;;;9.23;;
6547;SDS011;3307;52.416;16.862;2023-06-19T13:49:10;7.40;;;6.90;;
6547;SDS011;3307;52.416;16.862;2023-06-19T13:51:36;14.60;;;7.40;;
6547;SDS011;3307;52.416;16.862;2023-06-19T13:54:02;7.47;;;6.87;;
6547;SDS011;3307;52.416;16.862;2023-06-19T13:56:29;7.60;;;6.90;;
6547;SDS011;3307;52.416;16.862;2023-06-19T13:58:55;8.07;;;7.20;;
6547;SDS011;3307;52.416;16.862;2023-06-19T14:01:20;7.23;;;6.60;;
6547;SDS011;3307;52.416;16.862;2023-06-19T14:03:46;9.10;;;8.20;;
6547;SDS011;3307;52.416;16.862;2023-06-19T14:06:11;8.47;;;7.83;;
6547;SDS011;3307;52.416;16.862;2023-06-19T14:08:37;9.63;;;7.17;;
6547;SDS011;3307;52.416;16.862;2023-06-19T14:11:04;7.60;;;6.90;;
6547;SDS011;3307;52.416;16.862;2023-06-19T14:13:30;8.17;;;7.47;;
6547;SDS011;3307;52.416;16.862;2023-06-19T14:15:55;8.80;;;7.23;;
6547;SDS011;3307;52.416;16.862;2023-06-19T14:18:21;8.77;;;7.70;;
6547;SDS011;3307;52.416;16.862;2023-06-19T14:20:46;9.53;;;8.73;;
6547;SDS011;3307;52.416;16.862;2023-06-19T14:23:12;8.33;;;7.63;;
6547;SDS011;3307;52.416;16.862;2023-06-19T14:25:37;7.13;;;6.53;;
6547;SDS011;3307;52.416;16.862;2023-06-19T14:28:03;7.30;;;6.70;;
6547;SDS011;3307;52.416;16.862;2023-06-19T14:30:29;7.73;;;7.13;;
6547;SDS011;3307;52.416;16.862;2023-06-19T14:32:55;7.80;;;7.20;;
6547;SDS011;3307;52.416;16.862;2023-06-19T14:35:20;7.40;;;6.80;;
6547;SDS011;3307;52.416;16.862;2023-06-19T14:37:45;8.70;;;7.10;;
6547;SDS011;3307;52.416;16.862;2023-06-19T14:40:11;7.00;;;6.50;;
6547;SDS011;3307;52.416;16.862;2023-06-19T14:42:36;7.60;;;6.90;;
6547;SDS011;3307;52.416;16.862;2023-06-19T14:45:02;7.73;;;7.03;;
6547;SDS011;3307;52.416;16.862;2023-06-19T14:47:27;7.77;;;7.17;;
6547;SDS011;3307;52.416;16.862;2023-06-19T14:49:53;6.80;;;6.30;;